Main page
METAR-TAF:

METAR-TAF

Airports :

Heathrow Airport

London-Heathrow, England

latitude: 51-29N, longitude: 000-27W, elevation: 24 m

Current weather observation

The report was made 25 minutes ago, at 04:20 UTC
Wind 6 kt from the West
Temperature 16°C
Humidity 88%
Pressure 1015 hPa
Visibility 10 km or more

METAR: EGLL 220420Z AUTO 28006KT 9999 NCD 16/14 Q1015 NOSIG

Time: 05:45 (04:45 UTC)

Forecast

The report was made 5 hours and 53 minutes ago, at 22:52 UTC
Forecast valid from 22 at 00 UTC to 23 at 06 UTC
Wind 5 kt from the West/Northwest
Visibility 10 km or more
Few clouds at a height of 4500 ft
Probability 30%
from 22 at 02 UTC to 22 at 08 UTC
Visibility: 8000 m
Probability 30%
from 23 at 02 UTC to 23 at 06 UTC
Visibility: 8000 m

TAF: EGLL 212252Z 2200/2306 30005KT 9999 FEW045 PROB30 2202/2208 8000 PROB30 2302/2306 8000

Weather observations and forecasts of more than 4000 airports (METAR and TAF reports).

The available stations are represented by yellow and red dots on the map.

Hover mouse over dot to see the name of the station.

Then click to see weather observations and forecasts.

To change the map : click on the green buttons with a black cross to zoom in, on the green button with a dash to zoom out, or on the green arrows for adjacent maps.


METAR-TAF: